Latest Coastal Weather Observations for Cape Nelson

IDV60701

Issued at 5:05 pm EST Thursday 2 October 2014 (issued every 10 minutes, with the page automatically refreshed every 10 minutes)

About coastal observations | Map of coastal stations | Coastal observations for VIC | Marine services | Other Formats
Station Details ID: 090184 Name: CAPE NELSON LIGHTHOUSE Lat: -38.43 Lon: 141.54 Height: 45.4 m
Data from the previous 72 hours. | See also: Recent months at Cape Nelson
Date/Time
EST
Temp

°C
Wind Pressure Rain
since 9am
mm
Weather Cloud Vis
km
Sea
Height
m
Swell
Dir
 
Speed
knots
Gust
knots
hPa Trend Height
m
Period
s
Dir
02/05:00pm 13.1 W 8 13 1024.6 - 0.0 - - - - - - -
02/04:30pm 12.4 NW 11 17 1024.5 - 0.0 - - - - - - -
02/04:00pm 13.8 NE 9 18 1024.4 - 0.0 - - - - - - -
02/03:30pm 14.4 N 8 11 1024.4 - 0.0 - - - - - - -
02/03:00pm 13.6 W 13 17 1024.6 - 0.0 - - - - - - -
02/02:30pm 14.3 WNW 12 20 1024.8 - 0.0 - - - - - - -
02/02:00pm 12.7 WNW 12 19 1024.9 - 0.0 - - - - - - -
02/01:30pm 13.5 WNW 11 16 1025.2 - 0.0 - - - - - - -
02/01:00pm 13.4 W 15 23 1025.2 - 0.0 - - - - - - -
02/12:30pm 13.5 W 15 21 1025.5 - 0.0 - - - - - - -
02/12:00pm 13.6 NW 13 18 1025.4 - 0.0 - - - - - - -
02/11:30am 13.0 W 16 21 1025.8 - 0.0 - - - - - - -
02/11:00am 13.9 W 11 17 1025.8 - 0.0 - - - - - - -
02/10:30am 12.7 W 15 22 1025.7 - 0.0 - - - - - - -
02/10:00am 13.0 W 16 23 1025.5 - 0.0 - - - - - - -
02/09:30am 13.0 W 16 24 1025.4 - 0.0 - - - - - - -
02/09:00am 12.7 W 18 24 1025.4 - 0.0 - - - - - - -
02/08:30am 12.9 W 15 20 1025.1 - 0.0 - - - - - - -
02/08:00am 12.5 W 16 24 1025.1 - 0.0 - - - - - - -
02/07:30am 12.6 W 18 24 1024.7 - 0.0 - - - - - - -
02/07:00am 12.4 W 17 24 1024.6 - 0.0 - - - - - - -
02/06:30am 12.6 W 15 23 1024.2 - 0.0 - - - - - - -
02/06:00am 12.5 W 14 23 1024.0 - 0.0 - - - - - - -
02/05:30am 12.7 W 17 24 1023.9 - 0.0 - - - - - - -
02/05:00am 12.7 W 16 24 1023.6 - 0.0 - - - - - - -
02/04:50am 12.7 W 16 28 1023.7 - 0.0 - - - - - - -
02/04:30am 12.7 W 15 24 1023.5 - 0.0 - - - - - - -
02/04:00am 12.4 WNW 14 22 1023.5 - 0.0 - - - - - - -
02/03:30am 12.7 W 19 26 1023.6 - 0.0 - - - - - - -
02/03:00am 12.8 W 19 26 1023.9 - 0.0 - - - - - - -
02/02:30am 12.5 WNW 15 25 1024.1 - 0.0 - - - - - - -
02/02:03am 12.4 W 15 25 1024.4 - 0.0 - - - - - - -
02/02:00am 12.2 W 13 20 1024.5 - 0.0 - - - - - - -
02/01:30am 12.2 W 12 21 1024.8 - 0.0 - - - - - - -
02/01:13am 11.8 W 16 26 1024.9 - 0.0 - - - - - - -
02/01:00am 11.4 W 20 27 1024.9 - 0.0 - - - - - - -
02/12:40am 11.9 W 15 27 1024.9 - 0.0 - - - - - - -
02/12:30am 12.3 W 12 19 1025.0 - 0.0 - - - - - - -
02/12:07am 12.4 W 15 25 1025.2 - 0.0 - - - - - - -
02/12:00am 12.4 W 18 25 1025.2 - 0.0 - - - - - - -
 
Date/Time
EST
Temp

°C
Wind Pressure Rain
since 9am
mm
Weather Cloud Vis
km
Sea
Height
m
Swell
Dir
 
Speed
knots
Gust
knots
hPa Trend Height
m
Period
s
Dir
01/11:34pm 12.7 W 15 27 1025.2 - 0.0 - - - - - - -
01/11:30pm 12.5 W 15 23 1025.2 - 0.0 - - - - - - -
01/11:03pm 11.8 W 19 29 1025.5 - 0.0 - - - - - - -
01/11:00pm 11.7 W 20 29 1025.5 - 0.0 - - - - - - -
01/10:54pm 12.2 W 15 27 1025.4 - 0.0 - - - - - - -
01/10:30pm 12.8 W 17 24 1025.5 - 0.0 - - - - - - -
01/10:00pm 12.6 W 13 19 1025.7 - 0.0 - - - - - - -
01/09:30pm 12.4 W 11 18 1025.8 - 0.0 - - - - - - -
01/09:00pm 12.2 W 12 19 1026.0 - 0.0 - - - - - - -
01/08:30pm 12.3 W 13 20 1025.9 - 0.0 - - - - - - -
01/08:00pm 12.4 W 12 18 1025.6 - 0.0 - - - - - - -
01/07:30pm 12.5 W 15 21 1025.6 - 0.0 - - - - - - -
01/07:00pm 12.4 W 12 20 1025.5 - 0.0 - - - - - - -
01/06:30pm 12.6 W 14 20 1025.5 - 0.0 - - - - - - -
01/06:00pm 12.6 W 15 23 1025.5 - 0.0 - - - - - - -
01/05:30pm 12.6 W 13 20 1025.4 - 0.0 - - - - - - -
01/05:00pm 13.0 W 15 20 1025.2 - 0.0 - - - - - - -
01/04:30pm 12.6 W 14 20 1025.2 - 0.0 - - - - - - -
01/04:00pm 12.5 W 16 21 1025.3 - 0.0 - - - - - - -
01/03:30pm 13.1 W 14 19 1025.2 - 0.0 - - - - - - -
01/03:00pm 13.0 W 13 19 1025.3 - 0.0 - - - - - - -
01/02:30pm 12.9 W 13 19 1025.4 - 0.0 - - - - - - -
01/02:00pm 12.4 W 14 21 1025.3 - 0.0 - - - - - - -
01/01:30pm 12.3 NW 11 18 1025.7 - 0.0 - - - - - - -
01/01:00pm 13.4 WNW 10 17 1025.7 - 0.0 - - - - - - -
01/12:30pm 13.0 W 12 19 1025.7 - 0.0 - - - - - - -
01/12:00pm 13.6 N 9 14 1025.4 - 0.0 - - - - - - -
01/11:30am 12.7 NNW 9 13 1025.5 - 0.0 - - - - - - -
01/11:00am 13.4 NNE 9 14 1025.4 - 0.0 - - - - - - -
01/10:30am 13.4 N 9 13 1025.3 - 0.0 - - - - - - -
01/10:00am 12.9 SW 11 14 1025.2 - 0.0 - - - - - - -
01/09:30am 13.2 NE 9 16 1024.7 - 0.0 - - - - - - -
01/09:00am 11.4 NNE 9 12 1024.6 - 10.0 - - - - - - -
01/08:30am 12.0 NE 9 16 1023.7 - 10.0 - - - - - - -
01/08:00am 12.0 ENE 9 17 1023.1 - 10.0 - - - - - - -
01/07:30am 11.9 NNE 10 16 1022.7 - 10.0 - - - - - - -
01/07:00am 10.7 NE 9 14 1022.4 - 10.0 - - - - - - -
01/06:30am 10.3 NNE 11 14 1021.6 - 10.0 - - - - - - -
01/06:00am 10.4 NNE 10 14 1021.1 - 10.0 - - - - - - -
01/05:30am 10.4 NE 11 17 1020.6 - 10.0 - - - - - - -
01/05:00am 10.5 NNE 10 14 1020.2 - 10.0 - - - - - - -
01/04:30am 10.6 NNE 10 17 1019.8 - 10.0 - - - - - - -
01/04:00am 10.6 N 11 19 1019.5 - 10.0 - - - - - - -
01/03:30am 10.5 NE 12 19 1019.3 - 10.0 - - - - - - -
01/03:00am 10.7 N 11 15 1019.1 - 10.0 - - - - - - -
01/02:30am 10.5 NW 12 17 1019.1 - 10.0 - - - - - - -
01/02:00am 10.5 NE 13 18 1018.6 - 10.0 - - - - - - -
01/01:30am 10.5 NE 12 20 1018.2 - 10.0 - - - - - - -
01/01:14am 10.4 SSE 15 25 1018.0 - 10.0 - - - - - - -
01/01:00am 10.7 NNE 12 20 1017.9 - 10.0 - - - - - - -
01/12:30am 10.1 NNE 12 17 1017.9 - 10.0 - - - - - - -
01/12:22am 10.6 SSE 15 25 1017.4 - 10.0 - - - - - - -
01/12:00am 10.4 NE 14 23 1017.0 - 10.0 Recent precip. - - - - - -
 
Date/Time
EST
Temp

°C
Wind Pressure Rain
since 9am
mm
Weather Cloud Vis
km
Sea
Height
m
Swell
Dir
 
Speed
knots
Gust
knots
hPa Trend Height
m
Period
s
Dir
30/11:30pm 9.3 NNE 14 24 1016.6 - 10.0 - - - - - - -
30/11:00pm 9.8 NNE 11 15 1016.5 - 9.2 - - - - - - -
30/10:50pm 9.9 S 17 30 1016.2 - 9.2 - - - - - - -
30/10:30pm 10.6 NE 13 17 1016.1 - 9.2 - - - - - - -
30/10:23pm 10.6 WNW 17 29 1016.1 - 9.2 - - - - - - -
30/10:22pm 10.7 NW 17 26 1016.0 - 9.2 - - - - - - -
30/10:13pm 10.5 W 24 36 1016.1 - 9.2 - - - - - - -
30/10:09pm 10.4 NW 17 25 1015.7 - 9.2 - - - - - - -
30/10:00pm 10.6 W 23 33 1015.7 - 9.2 - - - - - - -
30/09:30pm 10.6 WNW 18 35 1014.9 - 9.2 - - - - - - -
30/09:18pm 10.8 W 23 34 1014.7 - 9.2 - - - - - - -
30/09:14pm 10.4 WNW 23 30 1014.9 - 9.2 - - - - - - -
30/09:06pm 9.3 ESE 15 25 1014.7 - 9.2 - - - - - - -
30/09:00pm 10.7 W 19 28 1014.4 - 9.2 - - - - - - -
30/08:56pm 11.3 W 21 32 1014.6 - 9.2 - - - - - - -
30/08:53pm 11.3 W 21 29 1014.6 - 9.2 - - - - - - -
30/08:47pm 11.1 NW 15 25 1014.2 - 9.2 - - - - - - -
30/08:46pm 11.1 NW 16 25 1014.1 - 9.2 - - - - - - -
30/08:30pm 11.2 W 27 39 1014.0 - 9.2 - - - - - - -
30/08:27pm 11.1 W 26 36 1013.8 - 9.2 - - - - - - -
30/08:23pm 11.2 W 30 36 1013.9 - 9.2 - - - - - - -
30/08:13pm 11.2 WNW 20 35 1013.4 - 9.2 - - - - - - -
30/08:06pm 10.7 NNW 15 26 1013.1 - 9.2 - - - - - - -
30/08:00pm 10.1 N 13 20 1013.2 - 9.2 - - - - - - -
30/07:44pm 11.2 NNW 17 28 1012.5 - 9.2 - - - - - - -
30/07:30pm 11.5 W 30 40 1012.7 - 9.2 - - - - - - -
30/07:00pm 11.2 W 26 37 1012.1 - 9.2 - - - - - - -
30/06:30pm 11.0 W 22 32 1011.7 - 9.2 - - - - - - -
30/06:00pm 10.6 W 25 41 1011.5 - 9.2 - - - - - - -
30/05:41pm 11.1 W 22 36 1010.8 - 9.2 - - - - - - -
30/05:36pm 11.4 NNW 19 29 1010.3 - 9.2 - - - - - - -
30/05:30pm 12.1 W 23 33 1010.7 - 9.2 - - - - - - -
30/05:00pm 12.0 W 27 38 1010.4 - 9.2 - - - - - - -
30/04:30pm 11.8 W 32 43 1009.7 - 9.2 - - - - - - -
30/04:00pm 12.0 W 25 36 1009.1 - 9.2 - - - - - - -
30/03:30pm 11.8 W 29 40 1008.5 - 9.2 - - - - - - -
30/03:00pm 11.4 W 27 39 1007.8 - 8.6 Rain - - - - - -
30/02:33pm 12.7 W 31 41 1007.3 - 8.4 - - - - - - -
30/02:30pm 12.8 W 32 41 1007.2 - 8.4 - - - - - - -
30/02:00pm 12.6 W 30 41 1006.9 - 8.4 - - - - - - -
30/01:30pm 12.4 W 23 38 1006.4 - 8.4 - - - - - - -
30/01:01pm 11.0 W 19 29 1006.1 - 8.4 - - - - - - -
30/01:00pm 10.9 W 18 27 1006.3 - 8.4 - - - - - - -
30/12:59pm 10.9 W 17 23 1006.4 - 8.4 - - - - - - -
30/12:39pm 10.4 W 31 42 1005.2 - 8.4 - - - - - - -
30/12:37pm 10.2 NW 20 42 1004.9 - 8.4 - - - - - - -
30/12:33pm 10.1 NW 18 28 1004.3 - 8.4 - - - - - - -
30/12:30pm 10.1 NNW 19 27 1004.0 - 8.2 - - - - - - -
30/12:24pm 10.1 NNW 19 25 1003.6 - 8.0 - - - - - - -
30/12:00pm 11.4 WNW 25 48 1004.1 - 6.0 Rain - - - - - -
30/11:57am 11.9 WNW 25 48 1004.0 - 5.8 - - - - - - -
30/11:54am 13.3 WNW 23 34 1003.7 - 5.8 - - - - - - -
30/11:30am 12.4 WNW 22 30 1004.0 - 5.8 - - - - - - -
30/11:00am 11.9 W 20 33 1003.9 - 4.0 - - - - - - -
30/10:55am 11.9 W 21 33 1004.0 - 3.6 - - - - - - -
30/10:32am 13.1 NW 20 30 1003.9 - 3.2 - - - - - - -
30/10:30am 13.0 NW 22 30 1003.9 - 3.2 - - - - - - -
30/10:00am 13.3 NW 24 36 1004.2 - 2.4 - - - - - - -
30/09:30am 14.2 NW 28 40 1004.0 - 0.2 - - - - - - -
30/09:02am 16.9 NW 28 38 1003.7 - 0.0 - - - - - - -
30/09:00am 17.2 NW 28 37 1003.7 - 0.0 - - - - - - -
30/08:30am 15.7 NW 28 40 1004.1 - 0.0 - - - - - - -
30/08:00am 15.5 NW 24 35 1004.3 - 0.0 - - - - - - -
30/07:30am 15.0 NW 20 30 1004.9 - 0.0 - - - - - - -
30/07:28am 14.9 NW 20 30 1004.8 - 0.0 - - - - - - -
30/07:00am 14.2 NW 19 27 1005.3 - 0.0 - - - - - - -
30/06:30am 14.1 NNW 20 28 1005.4 - 0.0 - - - - - - -
30/06:00am 13.7 NNW 20 27 1005.3 - 0.0 - - - - - - -
30/05:34am 13.7 NW 18 29 1005.4 - 0.0 - - - - - - -
30/05:30am 13.7 NW 17 26 1005.5 - 0.0 - - - - - - -
30/05:10am 13.3 NNW 15 29 1005.7 - 0.0 - - - - - - -
30/05:00am 13.2 NNW 16 24 1005.7 - 0.0 - - - - - - -
30/04:30am 12.9 NNW 15 20 1006.0 - 0.0 - - - - - - -
30/04:00am 13.0 NNW 14 21 1006.4 - 0.0 - - - - - - -
30/03:30am 12.9 NNW 14 22 1006.8 - 0.0 - - - - - - -
30/03:00am 12.6 NNW 12 19 1007.3 - 0.0 - - - - - - -
30/02:30am 12.3 NNW 14 21 1007.6 - 0.0 - - - - - - -
30/02:00am 11.7 NNW 13 17 1007.8 - 0.0 - - - - - - -
30/01:30am 11.7 NNW 13 17 1008.5 - 0.0 - - - - - - -
30/01:00am 12.0 NNW 12 20 1008.8 - 0.0 - - - - - - -
30/12:30am 12.8 NNW 15 21 1009.2 - 0.0 - - - - - - -
30/12:00am 12.8 NW 14 19 1009.4 - 0.0 - - - - - - -
 
Date/Time
EST
Temp

°C
Wind Pressure Rain
since 9am
mm
Weather Cloud Vis
km
Sea
Height
m
Swell
Dir
 
Speed
knots
Gust
knots
hPa Trend Height
m
Period
s
Dir
29/11:30pm 12.7 NW 14 21 1009.9 - 0.0 - - - - - - -
29/11:00pm 13.1 NW 12 17 1010.3 - 0.0 - - - - - - -
29/10:30pm 13.7 NW 11 18 1010.7 - 0.0 - - - - - - -
29/10:00pm 14.0 WNW 15 21 1010.9 - 0.0 - - - - - - -
29/09:30pm 13.9 NW 17 25 1010.9 - 0.0 - - - - - - -
29/09:08pm 14.1 WNW 20 30 1011.1 - 0.0 - - - - - - -
29/09:00pm 14.2 WNW 21 30 1011.0 - 0.0 - - - - - - -
29/08:30pm 14.3 WNW 21 28 1011.1 - 0.0 - - - - - - -
29/08:00pm 14.1 WNW 19 26 1011.0 - 0.0 - - - - - - -
29/07:30pm 14.1 WNW 20 26 1010.8 - 0.0 - - - - - - -
29/07:00pm 14.2 WNW 21 28 1010.5 - 0.0 - - - - - - -
29/06:30pm 14.1 WNW 21 29 1010.0 - 0.0 - - - - - - -
29/06:00pm 14.3 WNW 21 29 1009.9 - 0.0 - - - - - - -
29/05:30pm 15.0 WNW 20 27 1009.8 - 0.0 - - - - - - -

Other Formats:

Comma delimited format used in spreadsheet applications
http://www.bom.gov.au/fwo/IDV60701/IDV60701.94826.axf

JavaScript Object Notation format (JSON) in row-major order
http://www.bom.gov.au/fwo/IDV60701/IDV60701.94826.json